Time;durP1;ratioP1;P1;durP2;ratioP2;P2;SDS_P1;SDS_P2;PMS_P1;PMS_P2;Temp;Humidity;BMP_temperature;BMP_pressure;BME280_temperature;BME280_humidity;BME280_pressure;Samples;Min_cycle;Max_cycle;Signal;HPM_P1;HPM_P2
2023/09/19 00:01:34;;;;;;;2.20;0.80;;;;;;;16.75;100.00;97712.78;15268113;19;20003;-46
2023/09/19 00:07:02;;;;;;;1.88;0.90;;;;;;;16.70;100.00;97719.94;15264634;19;20031;-53
2023/09/19 00:12:27;;;;;;;1.88;0.77;;;;;;;16.67;100.00;97729.38;15260906;19;20042;-51
2023/09/19 00:17:54;;;;;;;1.52;0.77;;;;;;;16.63;100.00;97731.69;14747783;19;10000609;-48
2023/09/19 00:23:20;;;;;;;1.27;0.63;;;;;;;16.63;100.00;97714.53;15267754;19;20014;-51
2023/09/19 00:28:44;;;;;;;1.55;0.60;;;;;;;16.61;100.00;97709.31;15262385;19;20605;-46
2023/09/19 00:34:12;;;;;;;2.10;0.70;;;;;;;16.56;100.00;97724.63;15265088;19;20259;-46
2023/09/19 00:39:37;;;;;;;0.77;0.55;;;;;;;16.52;100.00;97729.66;15261075;19;20074;-46
2023/09/19 00:45:03;;;;;;;1.27;0.63;;;;;;;16.51;100.00;97717.13;15256316;19;20042;-45
2023/09/19 00:50:33;;;;;;;0.98;0.50;;;;;;;16.56;100.00;97711.84;15257890;19;20014;-47
2023/09/19 00:55:59;;;;;;;0.95;0.63;;;;;;;16.61;100.00;97709.31;15259720;19;20857;-51
2023/09/19 01:01:25;;;;;;;0.88;0.63;;;;;;;16.62;100.00;97699.25;15264298;19;20022;-48
2023/09/19 01:06:53;;;;;;;0.98;0.68;;;;;;;16.59;100.00;97705.97;15260793;19;20090;-50
2023/09/19 01:12:23;;;;;;;1.85;0.75;;;;;;;16.57;100.00;97708.06;15263963;19;20483;-48
2023/09/19 01:17:55;;;;;;;1.65;0.65;;;;;;;16.56;100.00;97709.13;15271404;19;20021;-46
2023/09/19 01:23:28;;;;;;;2.05;0.70;;;;;;;16.59;100.00;97721.44;15271337;19;20097;-47
2023/09/19 01:29:04;;;;;;;1.70;0.50;;;;;;;16.60;100.00;97723.13;15275136;19;20017;-46
2023/09/19 01:34:32;;;;;;;1.27;0.50;;;;;;;16.62;100.00;97716.44;15277474;19;20010;-48
2023/09/19 01:40:14;;;;;;;1.48;0.60;;;;;;;16.62;100.00;97724.59;15270483;19;20110;-45
2023/09/19 01:45:55;;;;;;;1.70;0.65;;;;;;;16.61;100.00;97727.50;15272917;19;20015;-45
2023/09/19 01:51:32;;;;;;;0.98;0.40;;;;;;;16.58;100.00;97734.22;15263471;19;20016;-48
2023/09/19 01:57:09;;;;;;;1.10;0.50;;;;;;;16.54;100.00;97735.69;15275069;19;20066;-46
2023/09/19 02:02:37;;;;;;;1.45;0.40;;;;;;;16.48;100.00;97742.84;15274052;19;20027;-50
2023/09/19 02:08:05;;;;;;;1.58;0.60;;;;;;;16.43;100.00;97747.25;15272901;19;20017;-48
2023/09/19 02:13:31;;;;;;;1.52;0.50;;;;;;;16.36;100.00;97754.59;15272830;19;20090;-45
2023/09/19 02:18:56;;;;;;;0.63;0.50;;;;;;;16.30;100.00;97768.00;15271334;19;20010;-47
2023/09/19 02:24:26;;;;;;;1.25;0.70;;;;;;;16.27;100.00;97762.16;15263088;19;20018;-46
2023/09/19 02:29:52;;;;;;;0.77;0.45;;;;;;;16.21;100.00;97772.00;15266655;19;20603;-46
2023/09/19 02:35:19;;;;;;;2.30;0.43;;;;;;;16.14;100.00;97774.75;15274521;19;20027;-47
2023/09/19 02:40:48;;;;;;;0.75;0.40;;;;;;;16.09;100.00;97779.16;15269693;19;20046;-47
2023/09/19 02:46:20;;;;;;;1.25;0.50;;;;;;;16.04;100.00;97787.13;15269160;19;20018;-48
2023/09/19 02:51:47;;;;;;;1.45;0.57;;;;;;;16.00;100.00;97783.97;15270847;19;20003;-45
2023/09/19 02:57:17;;;;;;;1.00;0.50;;;;;;;15.96;100.00;97789.00;15257162;19;20007;-48
2023/09/19 03:02:44;;;;;;;0.90;0.52;;;;;;;15.95;100.00;97797.38;15268913;19;20367;-45
2023/09/19 03:08:09;;;;;;;1.05;0.50;;;;;;;15.94;100.00;97801.94;15262188;19;20018;-47
2023/09/19 03:13:38;;;;;;;2.67;0.50;;;;;;;15.93;100.00;97805.75;15269642;19;20015;-48
2023/09/19 03:19:05;;;;;;;1.27;0.60;;;;;;;15.91;100.00;97799.66;15264628;19;20073;-48
2023/09/19 03:24:31;;;;;;;1.13;0.57;;;;;;;15.89;100.00;97806.34;15262429;19;20031;-48
2023/09/19 03:30:00;;;;;;;1.23;0.55;;;;;;;15.90;100.00;97808.00;15250918;19;20587;-50
2023/09/19 03:35:27;;;;;;;1.30;0.52;;;;;;;15.91;100.00;97813.25;15265630;19;20412;-57
2023/09/19 03:40:54;;;;;;;1.00;0.70;;;;;;;15.93;100.00;97813.88;15262956;19;20015;-50
2023/09/19 03:46:30;;;;;;;1.10;0.60;;;;;;;15.93;100.00;97811.16;15263574;19;20023;-52
2023/09/19 03:51:55;;;;;;;1.58;0.60;;;;;;;15.91;100.00;97810.53;15268078;19;20010;-51
2023/09/19 03:57:20;;;;;;;1.90;0.55;;;;;;;15.88;100.00;97819.09;15265740;19;20395;-49
2023/09/19 04:02:48;;;;;;;2.60;0.60;;;;;;;15.77;100.00;97811.56;15258609;19;20038;-49
2023/09/19 04:08:15;;;;;;;1.73;0.52;;;;;;;15.69;100.00;97823.47;15257175;19;20396;-49
2023/09/19 04:13:41;;;;;;;0.50;0.50;;;;;;;15.62;100.00;97833.50;15262818;19;20130;-54
2023/09/19 04:19:08;;;;;;;0.95;0.57;;;;;;;15.56;100.00;97844.13;15263092;19;20591;-48
2023/09/19 04:24:33;;;;;;;0.55;0.50;;;;;;;15.57;100.00;97834.13;15268730;19;20425;-48
2023/09/19 04:29:58;;;;;;;2.28;0.70;;;;;;;15.46;100.00;97835.56;15256157;19;20014;-53
2023/09/19 04:35:26;;;;;;;0.68;0.50;;;;;;;15.34;100.00;97838.06;15259778;19;20042;-52
2023/09/19 04:40:51;;;;;;;0.55;0.45;;;;;;;15.31;100.00;97840.34;15260890;19;20054;-50
2023/09/19 04:46:17;;;;;;;1.92;0.60;;;;;;;15.15;100.00;97857.84;15263678;19;20014;-54
2023/09/19 04:51:46;;;;;;;0.50;0.50;;;;;;;15.02;100.00;97859.47;15276158;19;20006;-51
2023/09/19 04:57:12;;;;;;;1.35;0.63;;;;;;;14.95;100.00;97864.88;15278962;19;20020;-48
2023/09/19 05:02:39;;;;;;;1.65;0.50;;;;;;;14.91;100.00;97876.34;15274949;19;21418;-54
2023/09/19 05:08:09;;;;;;;1.23;0.50;;;;;;;14.86;100.00;97876.13;15269950;19;20077;-50
2023/09/19 05:13:34;;;;;;;1.08;0.63;;;;;;;14.99;100.00;97878.91;15278689;19;20009;-51
2023/09/19 05:19:05;;;;;;;1.02;0.50;;;;;;;14.92;100.00;97886.16;15272255;19;20014;-48
2023/09/19 05:24:26;;;;;;;1.50;0.50;;;;;;;15.02;100.00;97858.66;15278772;19;20332;-51
2023/09/19 05:29:52;;;;;;;1.33;0.50;;;;;;;15.16;100.00;97860.38;15271481;19;20025;-50
2023/09/19 05:35:18;;;;;;;1.58;0.60;;;;;;;15.19;100.00;97851.78;14761626;19;10001191;-51
2023/09/19 05:40:45;;;;;;;1.63;0.50;;;;;;;15.28;100.00;97852.44;15267431;19;20025;-50
2023/09/19 05:46:17;;;;;;;1.35;0.60;;;;;;;15.31;100.00;97841.19;15273134;19;20070;-55
2023/09/19 05:51:42;;;;;;;1.65;0.68;;;;;;;15.27;100.00;97850.78;15276791;19;20025;-50
2023/09/19 05:57:12;;;;;;;0.50;0.50;;;;;;;15.34;100.00;97859.78;15274552;19;20585;-50
2023/09/19 06:02:38;;;;;;;1.58;0.60;;;;;;;15.40;100.00;97877.13;15266864;19;20013;-48
2023/09/19 06:08:07;;;;;;;1.08;0.50;;;;;;;15.53;100.00;97879.00;15267089;19;20010;-53
2023/09/19 06:13:35;;;;;;;0.88;0.50;;;;;;;15.65;100.00;97896.38;15274207;19;20027;-49
2023/09/19 06:19:00;;;;;;;1.38;0.57;;;;;;;15.81;100.00;97889.69;15271748;19;20023;-50
2023/09/19 06:24:25;;;;;;;1.25;0.52;;;;;;;15.97;100.00;97882.22;15275203;19;20023;-51
2023/09/19 06:29:53;;;;;;;1.48;0.75;;;;;;;16.16;100.00;97894.13;15269192;19;20018;-52
2023/09/19 06:35:18;;;;;;;1.38;0.50;;;;;;;16.34;100.00;97901.63;15271917;19;20025;-51
2023/09/19 06:40:44;;;;;;;1.02;0.55;;;;;;;16.57;100.00;97886.72;15261620;19;20032;-54
2023/09/19 06:46:12;;;;;;;1.08;0.50;;;;;;;16.69;100.00;97878.72;15269557;19;20025;-52
2023/09/19 06:51:37;;;;;;;1.48;0.80;;;;;;;16.87;100.00;97872.59;15272492;19;20481;-48
2023/09/19 06:57:01;;;;;;;1.15;0.52;;;;;;;16.89;100.00;97884.09;15245310;19;20041;-48
2023/09/19 07:02:29;;;;;;;0.93;0.60;;;;;;;16.94;100.00;97877.00;15266891;19;20082;-51
2023/09/19 07:07:54;;;;;;;1.08;0.45;;;;;;;16.92;100.00;97900.00;15268356;19;20035;-53
2023/09/19 07:13:19;;;;;;;1.70;0.60;;;;;;;16.89;100.00;97914.84;15254792;19;20025;-49
2023/09/19 07:18:47;;;;;;;1.50;0.60;;;;;;;16.87;100.00;97916.13;15268050;19;20081;-53
2023/09/19 07:24:13;;;;;;;1.23;0.45;;;;;;;16.98;100.00;97925.56;15269851;19;20549;-50
2023/09/19 07:29:39;;;;;;;0.68;0.45;;;;;;;17.06;100.00;97923.41;15266299;19;20022;-48
2023/09/19 07:35:12;;;;;;;0.55;0.40;;;;;;;17.23;100.00;97940.06;15268403;19;20011;-48
2023/09/19 07:40:37;;;;;;;2.50;0.60;;;;;;;17.33;100.00;97947.78;15264085;19;20021;-48
2023/09/19 07:46:13;;;;;;;0.82;0.50;;;;;;;17.49;100.00;97960.06;15250753;19;20353;-51
2023/09/19 07:51:40;;;;;;;1.38;0.55;;;;;;;17.59;100.00;97966.91;15268518;19;20018;-52
2023/09/19 07:57:05;;;;;;;0.70;0.40;;;;;;;17.59;100.00;97966.91;15266582;19;20014;-53
2023/09/19 08:02:30;;;;;;;1.15;0.50;;;;;;;17.56;100.00;97970.94;15264977;19;20015;-48
2023/09/19 08:07:59;;;;;;;0.98;0.40;;;;;;;17.60;100.00;97979.50;15265537;19;20030;-53
2023/09/19 08:13:24;;;;;;;0.95;0.50;;;;;;;17.61;100.00;97970.25;15264789;19;20015;-50
2023/09/19 08:18:48;;;;;;;1.33;0.40;;;;;;;17.67;100.00;97983.03;15251437;19;20046;-53
2023/09/19 08:24:16;;;;;;;1.58;0.40;;;;;;;17.75;100.00;97980.03;15267911;19;20026;-54
2023/09/19 08:29:42;;;;;;;0.93;0.57;;;;;;;17.82;100.00;97986.28;15275829;19;20015;-51
2023/09/19 08:35:09;;;;;;;0.75;0.40;;;;;;;17.92;100.00;97998.59;15278073;19;20471;-53
2023/09/19 08:40:38;;;;;;;2.00;0.50;;;;;;;17.98;100.00;97997.75;15278679;19;20019;-49
2023/09/19 08:46:20;;;;;;;1.33;0.40;;;;;;;17.73;100.00;97998.50;15275863;19;20017;-48
2023/09/19 08:51:47;;;;;;;1.52;0.60;;;;;;;17.63;100.00;98009.88;15269597;19;20054;-54
2023/09/19 08:57:21;;;;;;;1.58;0.60;;;;;;;17.76;100.00;98003.50;15277761;19;20029;-54
2023/09/19 09:02:48;;;;;;;2.58;0.50;;;;;;;17.83;100.00;98017.91;15273713;19;20014;-52
2023/09/19 09:08:15;;;;;;;1.65;0.68;;;;;;;17.91;100.00;98016.00;15275768;19;20014;-51
2023/09/19 09:13:42;;;;;;;1.08;0.57;;;;;;;17.94;100.00;98016.41;15278040;19;20029;-51
2023/09/19 09:19:07;;;;;;;2.03;0.52;;;;;;;17.89;100.00;98021.66;15274386;19;20078;-53
2023/09/19 09:24:33;;;;;;;1.17;0.43;;;;;;;17.76;100.00;98019.84;15264391;19;20034;-48
2023/09/19 09:30:03;;;;;;;1.08;0.60;;;;;;;17.71;100.00;98022.38;15271230;19;20019;-48
2023/09/19 09:35:29;;;;;;;1.23;0.60;;;;;;;17.65;100.00;98017.81;15276941;19;20011;-52
2023/09/19 09:41:06;;;;;;;1.10;0.70;;;;;;;17.82;100.00;98013.53;15275135;19;20027;-50
2023/09/19 09:47:27;;;;;;;1.48;0.60;;;;;;;17.86;100.00;98020.22;15272965;19;20014;-51
2023/09/19 09:52:49;;;;;;;1.55;0.80;;;;;;;18.04;100.00;98015.97;15276044;19;20066;-51
2023/09/19 09:58:29;;;;;;;4.32;0.70;;;;;;;18.15;100.00;98020.72;15262246;19;20074;-53
2023/09/19 10:04:00;;;;;;;3.33;0.70;;;;;;;18.26;100.00;98015.59;15269296;19;20019;-50
2023/09/19 10:09:36;;;;;;;0.57;0.50;;;;;;;18.35;100.00;98019.72;15270988;19;20022;-51
2023/09/19 10:15:06;;;;;;;2.83;0.70;;;;;;;18.33;92.77;98024.56;15274032;19;20486;-51
2023/09/19 10:20:38;;;;;;;1.58;0.70;;;;;;;18.44;100.00;98023.84;15270258;19;20033;-54
2023/09/19 10:26:05;;;;;;;0.65;0.50;;;;;;;18.38;98.38;98022.00;15269441;19;20014;-50
2023/09/19 10:31:31;;;;;;;0.90;0.57;;;;;;;18.45;100.00;98038.31;15273928;19;20026;-50
2023/09/19 10:37:02;;;;;;;1.88;0.70;;;;;;;18.47;96.68;98031.59;15270217;19;20025;-52
2023/09/19 10:42:29;;;;;;;;;;;;;;;18.62;100.00;98033.16;15270273;19;20022;-50
2023/09/19 10:48:02;;;;;;;2.03;0.50;;;;;;;18.63;100.00;98035.66;15266606;19;19921;-52
2023/09/19 10:53:32;;;;;;;1.65;0.70;;;;;;;18.84;100.00;98030.00;15270112;19;20014;-51
2023/09/19 10:58:58;;;;;;;1.23;0.57;;;;;;;18.95;100.00;98026.56;15256087;19;20093;-53
2023/09/19 11:04:26;;;;;;;1.27;0.65;;;;;;;19.09;100.00;98028.13;15270309;19;20023;-50
2023/09/19 11:10:03;;;;;;;1.40;0.70;;;;;;;19.13;100.00;98024.91;15269504;19;20021;-52
2023/09/19 11:16:14;;;;;;;2.85;0.77;;;;;;;19.24;100.00;98027.72;15271479;19;20018;-53
2023/09/19 11:22:08;;;;;;;2.03;0.88;;;;;;;19.52;100.00;98009.13;15270225;19;20486;-51
2023/09/19 11:27:35;;;;;;;1.98;0.80;;;;;;;19.64;96.52;98009.19;15264802;19;20089;-50
2023/09/19 11:33:29;;;;;;;1.13;0.63;;;;;;;19.79;93.81;98015.06;15253919;19;20015;-50
2023/09/19 11:39:14;;;;;;;1.30;0.88;;;;;;;19.95;97.41;97999.13;15266492;19;20500;-57
2023/09/19 11:44:46;;;;;;;2.45;0.65;;;;;;;20.28;92.99;98004.09;15268591;19;20014;-45
2023/09/19 11:50:11;;;;;;;1.33;0.90;;;;;;;20.10;87.23;98009.63;15265305;19;20018;-44
2023/09/19 11:55:38;;;;;;;1.33;0.80;;;;;;;20.08;83.32;98011.75;15267582;19;20078;-44
2023/09/19 12:01:13;;;;;;;1.08;0.88;;;;;;;20.10;84.86;98001.41;15264728;19;20029;-44
2023/09/19 12:06:44;;;;;;;1.52;0.75;;;;;;;20.13;88.43;98000.97;15253826;19;20089;-44
2023/09/19 12:12:10;;;;;;;1.45;0.95;;;;;;;20.04;75.54;97994.16;15267622;19;20031;-44
2023/09/19 12:17:47;;;;;;;1.42;0.80;;;;;;;20.12;75.75;97999.28;15264816;19;20370;-45
2023/09/19 12:23:16;;;;;;;1.90;1.00;;;;;;;20.05;75.37;97990.38;15262582;19;20551;-48
2023/09/19 12:28:52;;;;;;;1.42;1.00;;;;;;;19.97;77.45;98006.03;15264269;19;20014;-45
2023/09/19 12:34:23;;;;;;;2.40;0.90;;;;;;;20.05;79.06;97985.72;15265240;19;20585;-46
2023/09/19 12:39:53;;;;;;;1.08;0.90;;;;;;;20.28;80.62;97984.94;15250330;19;20010;-46
2023/09/19 12:45:21;;;;;;;1.27;0.90;;;;;;;20.60;77.70;97987.34;15263806;19;20094;-45
2023/09/19 12:51:11;;;;;;;1.10;0.80;;;;;;;20.67;76.27;97980.91;15264001;19;20039;-45
2023/09/19 12:56:44;;;;;;;0.98;0.80;;;;;;;20.59;75.63;97985.69;15262475;19;20014;-44
2023/09/19 13:02:18;;;;;;;1.10;0.80;;;;;;;20.42;78.05;97993.75;15262324;19;20014;-45
2023/09/19 13:07:49;;;;;;;1.40;0.75;;;;;;;20.30;79.91;97996.47;15251233;19;20015;-45
2023/09/19 13:13:29;;;;;;;;;;;;;;;20.28;78.33;97995.88;15276436;19;20054;-46
2023/09/19 13:18:56;;;;;;;0.98;0.80;;;;;;;20.66;77.00;97987.47;15274773;19;19939;-44
2023/09/19 13:24:33;;;;;;;0.90;0.80;;;;;;;20.66;77.20;98002.00;15269516;19;20098;-44
2023/09/19 13:29:58;;;;;;;1.92;1.00;;;;;;;20.82;77.00;97989.53;15272264;19;20034;-45
2023/09/19 13:35:23;;;;;;;1.77;1.00;;;;;;;20.60;77.90;97997.44;15275165;19;20026;-44
2023/09/19 13:40:52;;;;;;;2.85;0.88;;;;;;;20.43;79.74;97987.22;15261515;19;20026;-44
2023/09/19 13:46:26;;;;;;;1.10;1.00;;;;;;;20.50;76.05;97989.84;15272668;19;20499;-44
2023/09/19 13:51:52;;;;;;;4.00;1.10;;;;;;;20.58;73.99;97991.41;15276388;19;20034;-44
2023/09/19 13:57:20;;;;;;;1.38;1.00;;;;;;;20.88;72.00;97985.81;15274522;19;20018;-47
2023/09/19 14:02:48;;;;;;;3.15;1.00;;;;;;;20.92;70.56;97981.53;15273883;19;20018;-46
2023/09/19 14:08:14;;;;;;;3.85;1.00;;;;;;;21.27;68.15;97976.25;15272947;19;20025;-44
2023/09/19 14:13:46;;;;;;;2.33;1.10;;;;;;;21.44;66.41;97974.44;15264291;19;20010;-44
2023/09/19 14:19:16;;;;;;;1.45;1.00;;;;;;;21.63;66.46;97987.97;15269621;19;20018;-45
2023/09/19 14:24:41;;;;;;;2.00;1.10;;;;;;;21.63;63.71;97982.47;15264248;19;20090;-44
2023/09/19 14:30:09;;;;;;;1.92;1.10;;;;;;;21.60;64.27;97988.44;15268850;19;20086;-44
2023/09/19 14:35:34;;;;;;;1.17;0.85;;;;;;;21.33;64.62;97983.50;15272081;19;20028;-43
2023/09/19 14:41:07;;;;;;;3.10;1.08;;;;;;;21.48;66.63;97980.25;15269565;19;20901;-44
2023/09/19 14:46:34;;;;;;;1.95;1.00;;;;;;;21.69;62.92;97976.84;15257666;19;20086;-43
2023/09/19 14:51:59;;;;;;;2.13;1.00;;;;;;;21.56;65.62;97988.06;15269873;19;20018;-43
2023/09/19 14:57:24;;;;;;;2.35;1.10;;;;;;;21.49;61.12;97980.00;15267005;19;20006;-43
2023/09/19 15:02:52;;;;;;;1.83;1.02;;;;;;;21.60;61.95;97970.09;15270063;19;20090;-44
2023/09/19 15:08:16;;;;;;;2.95;0.95;;;;;;;21.72;60.46;97978.25;15267792;19;20476;-45
2023/09/19 15:13:42;;;;;;;1.50;1.00;;;;;;;21.65;61.96;97980.34;15270717;19;20090;-43
2023/09/19 15:19:11;;;;;;;1.83;0.98;;;;;;;21.42;60.33;97975.72;15258333;19;20015;-44
2023/09/19 15:24:35;;;;;;;1.63;1.00;;;;;;;21.33;62.21;97973.38;15265505;19;20022;-43
2023/09/19 15:30:02;;;;;;;4.10;1.08;;;;;;;21.54;61.74;97957.34;15267337;19;20015;-44
2023/09/19 15:35:30;;;;;;;2.88;1.13;;;;;;;21.45;59.21;97970.59;15267734;19;20022;-43
2023/09/19 15:40:55;;;;;;;1.75;1.00;;;;;;;21.52;60.01;97965.00;15268129;19;20531;-44
2023/09/19 15:46:19;;;;;;;1.67;1.10;;;;;;;21.23;56.76;97978.63;15267912;19;20026;-46
2023/09/19 15:51:46;;;;;;;1.65;1.00;;;;;;;21.08;56.92;97979.97;15259038;19;20011;-44
2023/09/19 15:57:12;;;;;;;2.45;1.00;;;;;;;20.89;57.94;97975.72;15263326;19;20029;-43
2023/09/19 16:02:38;;;;;;;2.80;1.10;;;;;;;20.77;59.37;97975.72;15264620;19;20006;-49
2023/09/19 16:08:05;;;;;;;2.65;1.30;;;;;;;20.82;59.69;97975.00;15266526;19;20022;-43
2023/09/19 16:13:30;;;;;;;1.50;0.90;;;;;;;20.75;60.36;97988.81;15262282;19;20025;-50
2023/09/19 16:18:57;;;;;;;2.60;1.00;;;;;;;20.58;62.28;97984.03;15261228;19;20029;-52
2023/09/19 16:24:25;;;;;;;2.00;1.10;;;;;;;20.59;62.43;97982.94;15254420;19;20029;-52
2023/09/19 16:29:50;;;;;;;1.98;1.10;;;;;;;20.44;63.66;97983.41;15269274;19;20102;-53
2023/09/19 16:35:15;;;;;;;1.63;1.00;;;;;;;20.33;62.81;97987.78;15265659;19;20018;-49
2023/09/19 16:40:44;;;;;;;5.47;1.30;;;;;;;20.06;63.43;97994.75;15266391;19;20018;-52
2023/09/19 16:46:11;;;;;;;3.88;1.25;;;;;;;19.91;64.06;97996.03;15266256;19;20593;-49
2023/09/19 16:51:37;;;;;;;2.67;1.23;;;;;;;19.83;67.00;97994.41;15281658;19;20031;-49
2023/09/19 16:57:06;;;;;;;2.95;1.10;;;;;;;19.57;65.50;98003.81;15266268;19;20018;-52
2023/09/19 17:02:31;;;;;;;3.13;1.10;;;;;;;19.38;68.74;98009.28;15281418;19;20021;-51
2023/09/19 17:07:56;;;;;;;2.65;1.17;;;;;;;19.09;67.16;98006.28;15274574;19;20022;-50
2023/09/19 17:13:23;;;;;;;3.83;1.00;;;;;;;18.69;70.10;98012.09;15275421;19;20357;-51
2023/09/19 17:18:52;;;;;;;3.38;1.20;;;;;;;18.39;70.87;98009.19;15273989;19;20796;-52
2023/09/19 17:24:17;;;;;;;2.20;1.17;;;;;;;18.13;73.46;98014.63;15272672;19;20015;-51
2023/09/19 17:29:45;;;;;;;3.85;1.08;;;;;;;17.84;72.95;98005.97;15265190;19;20701;-50
2023/09/19 17:35:11;;;;;;;2.83;1.10;;;;;;;17.65;78.51;98023.28;15273272;19;20015;-50
2023/09/19 17:40:29;;;;;;;3.42;1.20;;;;;;;17.41;82.43;98018.31;15277283;19;20022;-49
2023/09/19 17:45:57;;;;;;;2.72;1.27;;;;;;;17.18;84.49;98013.41;15273668;19;20033;-52
2023/09/19 17:51:23;;;;;;;2.17;1.10;;;;;;;16.99;89.86;98025.19;15274027;19;20085;-51
2023/09/19 17:56:49;;;;;;;2.75;1.10;;;;;;;16.94;93.18;98031.22;15263132;19;20022;-53
2023/09/19 18:02:16;;;;;;;3.63;1.05;;;;;;;16.82;97.76;98024.75;15262970;19;20018;-55
2023/09/19 18:07:46;;;;;;;2.10;1.00;;;;;;;16.73;100.00;98027.69;15273480;19;20021;-49
2023/09/19 18:13:13;;;;;;;1.67;1.10;;;;;;;16.62;100.00;98036.47;15273686;19;20018;-53
2023/09/19 18:18:49;;;;;;;3.03;1.30;;;;;;;16.54;100.00;98048.41;15276235;19;20010;-51
2023/09/19 18:24:16;;;;;;;2.42;1.35;;;;;;;16.46;100.00;98057.59;15273114;19;20082;-50
2023/09/19 18:29:43;;;;;;;3.60;1.40;;;;;;;16.40;100.00;98065.78;15272149;19;20020;-53
2023/09/19 18:35:11;;;;;;;2.40;1.27;;;;;;;16.30;100.00;98066.16;15268233;19;20018;-48
2023/09/19 18:40:38;;;;;;;3.50;1.17;;;;;;;16.18;100.00;98074.09;15272489;19;20465;-47
2023/09/19 18:46:04;;;;;;;2.40;1.20;;;;;;;16.05;100.00;98074.91;15269657;19;20029;-51
2023/09/19 18:51:33;;;;;;;4.43;1.10;;;;;;;15.94;100.00;98073.59;15270724;19;20526;-44
2023/09/19 18:56:58;;;;;;;2.15;1.13;;;;;;;15.88;100.00;98085.31;15270092;19;20022;-45
2023/09/19 19:02:23;;;;;;;3.40;1.20;;;;;;;15.81;100.00;98079.00;15266451;19;20692;-47
2023/09/19 19:07:50;;;;;;;2.30;1.10;;;;;;;15.72;100.00;98090.00;15265786;19;20030;-46
2023/09/19 19:13:16;;;;;;;2.53;1.20;;;;;;;15.64;100.00;98087.47;15270912;19;20003;-45
2023/09/19 19:18:49;;;;;;;3.17;1.20;;;;;;;15.57;100.00;98094.78;15267790;19;20280;-46
2023/09/19 19:24:20;;;;;;;2.95;1.20;;;;;;;15.50;100.00;98091.16;15265490;19;20050;-49
2023/09/19 19:29:45;;;;;;;2.03;1.30;;;;;;;15.43;100.00;98091.13;15272606;19;20021;-45
2023/09/19 19:35:11;;;;;;;2.63;1.20;;;;;;;15.37;100.00;98095.50;15251025;19;20368;-47
2023/09/19 19:40:38;;;;;;;4.28;1.10;;;;;;;15.33;100.00;98088.81;15271296;19;20046;-45
2023/09/19 19:46:07;;;;;;;3.08;1.02;;;;;;;15.29;100.00;98087.50;15268602;19;20016;-44
2023/09/19 19:51:33;;;;;;;2.00;1.00;;;;;;;15.23;100.00;98088.28;15267309;19;20063;-45
2023/09/19 19:57:01;;;;;;;2.47;1.30;;;;;;;15.14;100.00;98078.66;15265331;19;20531;-48
2023/09/19 20:02:25;;;;;;;2.42;1.20;;;;;;;15.07;100.00;98094.88;15270174;19;20385;-47
2023/09/19 20:07:50;;;;;;;1.85;1.05;;;;;;;14.99;100.00;98087.75;15253359;19;20340;-45
2023/09/19 20:13:17;;;;;;;3.15;1.10;;;;;;;14.91;100.00;98086.03;15265653;19;20015;-44
2023/09/19 20:18:49;;;;;;;1.52;1.05;;;;;;;14.82;100.00;98086.38;15263194;19;20105;-45
2023/09/19 20:24:19;;;;;;;3.80;1.20;;;;;;;14.82;100.00;98081.75;15280280;19;20029;-44
2023/09/19 20:29:47;;;;;;;2.53;1.05;;;;;;;14.85;100.00;98081.38;15284048;19;20003;-44
2023/09/19 20:35:14;;;;;;;2.47;1.10;;;;;;;14.85;100.00;98075.97;15280394;19;20015;-46
2023/09/19 20:40:39;;;;;;;1.95;0.98;;;;;;;14.86;100.00;98076.81;15273173;19;20049;-49
2023/09/19 20:46:07;;;;;;;2.50;0.93;;;;;;;14.87;100.00;98070.34;15278362;19;20020;-52
2023/09/19 20:51:34;;;;;;;2.58;1.00;;;;;;;14.88;100.00;98069.28;15281848;19;20011;-52
2023/09/19 20:57:01;;;;;;;1.25;0.90;;;;;;;14.89;100.00;98066.41;15276773;19;20022;-49
2023/09/19 21:02:28;;;;;;;2.47;1.10;;;;;;;14.91;100.00;98077.91;15278045;19;20010;-49
2023/09/19 21:07:53;;;;;;;2.08;0.90;;;;;;;14.93;100.00;98072.25;15267934;19;20482;-54
2023/09/19 21:13:18;;;;;;;2.72;1.30;;;;;;;14.97;100.00;98073.56;15259064;19;20475;-49
2023/09/19 21:18:53;;;;;;;2.47;1.05;;;;;;;14.99;100.00;98076.06;15269675;19;20018;-50
2023/09/19 21:24:20;;;;;;;2.85;0.90;;;;;;;15.00;100.00;98067.72;15277632;19;20034;-52
2023/09/19 21:29:47;;;;;;;1.45;0.90;;;;;;;14.99;100.00;98067.91;15278418;19;20021;-50
2023/09/19 21:35:15;;;;;;;2.00;0.90;;;;;;;14.99;100.00;98057.91;15273447;19;20408;-53
2023/09/19 21:40:40;;;;;;;1.48;1.00;;;;;;;14.98;100.00;98058.97;15279963;19;20024;-53
2023/09/19 21:46:06;;;;;;;1.20;0.80;;;;;;;14.95;100.00;98054.75;15263230;19;20010;-53
2023/09/19 21:51:34;;;;;;;3.58;1.10;;;;;;;14.94;100.00;98057.66;15279190;19;20033;-51
2023/09/19 21:56:59;;;;;;;2.95;0.85;;;;;;;14.92;100.00;98057.88;15275915;19;20018;-51
2023/09/19 22:02:23;;;;;;;3.35;0.85;;;;;;;14.90;100.00;98049.09;15277523;19;20022;-54
2023/09/19 22:07:51;;;;;;;1.92;1.00;;;;;;;14.89;100.00;98054.69;15271696;19;20024;-51
2023/09/19 22:13:20;;;;;;;2.65;1.10;;;;;;;14.88;100.00;98048.44;15276160;19;20010;-49
2023/09/19 22:18:53;;;;;;;2.97;1.00;;;;;;;14.87;100.00;98054.09;15258383;19;20011;-51
2023/09/19 22:24:22;;;;;;;1.88;0.90;;;;;;;14.82;100.00;98054.66;15275169;19;20010;-49
2023/09/19 22:29:46;;;;;;;1.90;0.90;;;;;;;14.75;100.00;98053.78;15276736;19;20033;-51
2023/09/19 22:35:11;;;;;;;2.80;0.90;;;;;;;14.70;100.00;98057.06;15272744;19;20025;-49
2023/09/19 22:40:42;;;;;;;2.47;0.85;;;;;;;14.59;100.00;98060.28;15273100;19;20025;-49
2023/09/19 22:46:11;;;;;;;1.83;1.00;;;;;;;14.50;100.00;98051.47;15267756;19;20018;-49
2023/09/19 22:51:41;;;;;;;2.75;0.90;;;;;;;14.39;100.00;98055.56;15262086;19;20102;-49
2023/09/19 22:57:11;;;;;;;2.35;0.88;;;;;;;14.36;100.00;98064.06;15269024;19;20368;-49
2023/09/19 23:02:38;;;;;;;1.33;0.90;;;;;;;14.35;100.00;98064.28;15272637;19;20082;-51
2023/09/19 23:08:06;;;;;;;1.63;0.90;;;;;;;14.35;100.00;98059.69;15269715;19;20827;-53
2023/09/19 23:13:38;;;;;;;2.17;0.85;;;;;;;14.32;100.00;98055.50;15273212;19;20026;-50
2023/09/19 23:19:15;;;;;;;1.63;0.80;;;;;;;14.31;100.00;98061.94;15267719;19;20479;-49
2023/09/19 23:24:40;;;;;;;1.20;0.80;;;;;;;14.31;100.00;98063.78;15259091;19;20412;-50
2023/09/19 23:30:10;;;;;;;1.73;0.95;;;;;;;14.28;100.00;98054.19;15272587;19;20085;-53
2023/09/19 23:35:36;;;;;;;2.25;1.00;;;;;;;14.25;100.00;98067.28;15269585;19;20022;-50
2023/09/19 23:41:04;;;;;;;1.77;0.90;;;;;;;14.17;100.00;98068.25;15268772;19;20038;-49
2023/09/19 23:46:32;;;;;;;1.50;0.90;;;;;;;14.08;100.00;98059.41;15268206;19;20025;-50
2023/09/19 23:51:58;;;;;;;1.80;0.85;;;;;;;14.03;100.00;98062.69;15267250;19;20019;-53
2023/09/19 23:57:23;;;;;;;1.60;0.90;;;;;;;14.01;100.00;98058.53;15260324;19;20507;-52
